sensor_id;sensor_type;location;lat;lon;timestamp;pressure;altitude;pressure_sealevel;temperature;humidity
70445;BME280;57902;49.638;11.070;2023-11-21T00:01:06;97668.94;;;6.55;100.00
70445;BME280;57902;49.638;11.070;2023-11-21T00:03:35;97672.38;;;6.54;100.00
70445;BME280;57902;49.638;11.070;2023-11-21T00:06:02;97674.94;;;6.54;100.00
70445;BME280;57902;49.638;11.070;2023-11-21T00:08:29;97681.69;;;6.58;100.00
70445;BME280;57902;49.638;11.070;2023-11-21T00:10:56;97680.84;;;6.57;100.00
70445;BME280;57902;49.638;11.070;2023-11-21T00:13:23;97678.31;;;6.56;100.00
70445;BME280;57902;49.638;11.070;2023-11-21T00:15:50;97679.13;;;6.58;100.00
70445;BME280;57902;49.638;11.070;2023-11-21T00:18:16;97676.56;;;6.58;100.00
70445;BME280;57902;49.638;11.070;2023-11-21T00:20:43;97681.78;;;6.53;100.00
70445;BME280;57902;49.638;11.070;2023-11-21T00:23:10;97676.75;;;6.48;100.00
70445;BME280;57902;49.638;11.070;2023-11-21T00:25:36;97679.34;;;6.47;100.00
70445;BME280;57902;49.638;11.070;2023-11-21T00:28:03;97676.75;;;6.48;100.00
70445;BME280;57902;49.638;11.070;2023-11-21T00:30:30;97675.06;;;6.49;100.00
70445;BME280;57902;49.638;11.070;2023-11-21T00:32:57;97679.28;;;6.50;100.00
70445;BME280;57902;49.638;11.070;2023-11-21T00:35:24;97667.41;;;6.46;100.00
70445;BME280;57902;49.638;11.070;2023-11-21T00:37:50;97670.69;;;6.53;100.00
70445;BME280;57902;49.638;11.070;2023-11-21T00:40:17;97674.88;;;6.57;100.00
70445;BME280;57902;49.638;11.070;2023-11-21T00:42:47;97668.81;;;6.61;100.00
70445;BME280;57902;49.638;11.070;2023-11-21T00:45:14;97672.88;;;6.70;100.00
70445;BME280;57902;49.638;11.070;2023-11-21T00:47:41;97672.88;;;6.70;100.00
70445;BME280;57902;49.638;11.070;2023-11-21T00:50:09;97671.06;;;6.73;100.00
70445;BME280;57902;49.638;11.070;2023-11-21T00:52:36;97678.78;;;6.72;100.00
70445;BME280;57902;49.638;11.070;2023-11-21T00:55:04;97671.81;;;6.78;100.00
70445;BME280;57902;49.638;11.070;2023-11-21T00:57:31;97682.97;;;6.76;100.00
70445;BME280;57902;49.638;11.070;2023-11-21T00:59:57;97679.53;;;6.75;100.00
70445;BME280;57902;49.638;11.070;2023-11-21T01:02:24;97678.75;;;6.73;100.00
70445;BME280;57902;49.638;11.070;2023-11-21T01:04:51;97677.84;;;6.76;100.00
70445;BME280;57902;49.638;11.070;2023-11-21T01:07:18;97674.66;;;6.66;100.00
70445;BME280;57902;49.638;11.070;2023-11-21T01:09:47;97681.47;;;6.67;100.00
70445;BME280;57902;49.638;11.070;2023-11-21T01:12:14;97678.09;;;6.65;100.00
70445;BME280;57902;49.638;11.070;2023-11-21T01:14:41;97686.50;;;6.70;100.00
70445;BME280;57902;49.638;11.070;2023-11-21T01:17:07;97684.75;;;6.72;100.00
70445;BME280;57902;49.638;11.070;2023-11-21T01:19:34;97683.34;;;6.59;100.00
70445;BME280;57902;49.638;11.070;2023-11-21T01:22:01;97685.13;;;6.57;100.00
70445;BME280;57902;49.638;11.070;2023-11-21T01:24:27;97682.34;;;6.66;100.00
70445;BME280;57902;49.638;11.070;2023-11-21T01:26:54;97675.63;;;6.60;100.00
70445;BME280;57902;49.638;11.070;2023-11-21T01:29:20;97681.69;;;6.58;100.00
70445;BME280;57902;49.638;11.070;2023-11-21T01:31:47;97679.94;;;6.60;100.00
70445;BME280;57902;49.638;11.070;2023-11-21T01:34:13;97676.53;;;6.59;100.00
70445;BME280;57902;49.638;11.070;2023-11-21T01:36:40;97685.13;;;6.57;100.00
70445;BME280;57902;49.638;11.070;2023-11-21T01:39:07;97678.53;;;6.46;100.00
70445;BME280;57902;49.638;11.070;2023-11-21T01:41:35;97682.84;;;6.43;100.00
70445;BME280;57902;49.638;11.070;2023-11-21T01:44:01;97678.59;;;6.43;100.00
70445;BME280;57902;49.638;11.070;2023-11-21T01:46:28;97679.63;;;6.36;100.00
70445;BME280;57902;49.638;11.070;2023-11-21T01:48:55;97678.06;;;6.29;100.00
70445;BME280;57902;49.638;11.070;2023-11-21T01:51:22;97675.53;;;6.27;100.00
70445;BME280;57902;49.638;11.070;2023-11-21T01:53:50;97673.66;;;6.34;100.00
70445;BME280;57902;49.638;11.070;2023-11-21T01:56:17;97666.03;;;6.33;100.00
70445;BME280;57902;49.638;11.070;2023-11-21T01:58:44;97669.25;;;6.41;100.00
70445;BME280;57902;49.638;11.070;2023-11-21T02:01:13;97667.50;;;6.43;100.00
70445;BME280;57902;49.638;11.070;2023-11-21T02:03:40;97675.22;;;6.41;100.00
70445;BME280;57902;49.638;11.070;2023-11-21T02:06:07;97668.25;;;6.48;100.00
70445;BME280;57902;49.638;11.070;2023-11-21T02:08:35;97672.47;;;6.51;100.00
70445;BME280;57902;49.638;11.070;2023-11-21T02:11:04;97677.47;;;6.55;100.00
70445;BME280;57902;49.638;11.070;2023-11-21T02:13:31;97675.03;;;6.51;100.00
70445;BME280;57902;49.638;11.070;2023-11-21T02:15:58;97670.59;;;6.57;100.00
70445;BME280;57902;49.638;11.070;2023-11-21T02:18:25;97671.50;;;6.55;100.00
70445;BME280;57902;49.638;11.070;2023-11-21T02:20:52;97667.34;;;6.51;100.00
70445;BME280;57902;49.638;11.070;2023-11-21T02:23:19;97669.13;;;6.47;100.00
70445;BME280;57902;49.638;11.070;2023-11-21T02:25:45;97665.69;;;6.48;100.00
70445;BME280;57902;49.638;11.070;2023-11-21T02:28:13;97671.63;;;6.48;100.00
70445;BME280;57902;49.638;11.070;2023-11-21T02:30:41;97669.13;;;6.47;100.00
70445;BME280;57902;49.638;11.070;2023-11-21T02:33:09;97668.13;;;6.53;100.00
70445;BME280;57902;49.638;11.070;2023-11-21T02:35:35;97671.59;;;6.50;100.00
70445;BME280;57902;49.638;11.070;2023-11-21T02:38:02;97663.28;;;6.42;100.00
70445;BME280;57902;49.638;11.070;2023-11-21T02:40:29;97666.53;;;6.48;100.00
70445;BME280;57902;49.638;11.070;2023-11-21T02:42:56;97665.81;;;6.43;100.00
70445;BME280;57902;49.638;11.070;2023-11-21T02:45:26;97657.34;;;6.40;100.00
70445;BME280;57902;49.638;11.070;2023-11-21T02:47:52;97661.53;;;6.42;100.00
70445;BME280;57902;49.638;11.070;2023-11-21T02:50:24;97659.03;;;6.41;100.00
70445;BME280;57902;49.638;11.070;2023-11-21T02:52:51;97664.81;;;6.49;100.00
70445;BME280;57902;49.638;11.070;2023-11-21T02:55:18;97656.44;;;6.42;100.00
70445;BME280;57902;49.638;11.070;2023-11-21T02:57:44;97660.63;;;6.45;100.00
70445;BME280;57902;49.638;11.070;2023-11-21T03:00:11;97662.31;;;6.46;100.00
70445;BME280;57902;49.638;11.070;2023-11-21T03:02:40;97660.22;;;6.62;100.00
70445;BME280;57902;49.638;11.070;2023-11-21T03:05:07;97661.28;;;6.53;100.00
70445;BME280;57902;49.638;11.070;2023-11-21T03:07:39;97652.78;;;6.53;100.00
70445;BME280;57902;49.638;11.070;2023-11-21T03:10:08;97657.00;;;6.55;100.00
70445;BME280;57902;49.638;11.070;2023-11-21T03:12:37;97659.44;;;6.60;100.00
70445;BME280;57902;49.638;11.070;2023-11-21T03:15:05;97649.28;;;6.57;100.00
70445;BME280;57902;49.638;11.070;2023-11-21T03:17:32;97651.00;;;6.55;100.00
70445;BME280;57902;49.638;11.070;2023-11-21T03:20:00;97646.97;;;6.44;100.00
70445;BME280;57902;49.638;11.070;2023-11-21T03:22:27;97649.69;;;6.38;100.00
70445;BME280;57902;49.638;11.070;2023-11-21T03:24:54;97650.41;;;6.45;100.00
70445;BME280;57902;49.638;11.070;2023-11-21T03:27:20;97653.97;;;6.38;100.00
70445;BME280;57902;49.638;11.070;2023-11-21T03:29:48;97655.63;;;6.40;100.00
70445;BME280;57902;49.638;11.070;2023-11-21T03:32:15;97657.50;;;6.32;100.00
70445;BME280;57902;49.638;11.070;2023-11-21T03:34:57;97660.00;;;6.35;100.00
70445;BME280;57902;49.638;11.070;2023-11-21T03:37:25;97665.13;;;6.35;100.00
70445;BME280;57902;49.638;11.070;2023-11-21T03:39:55;97658.31;;;6.34;100.00
70445;BME280;57902;49.638;11.070;2023-11-21T03:42:21;97666.75;;;6.39;100.00
70445;BME280;57902;49.638;11.070;2023-11-21T03:44:48;97670.09;;;6.41;100.00
70445;BME280;57902;49.638;11.070;2023-11-21T03:47:14;97666.75;;;6.39;100.00
70445;BME280;57902;49.638;11.070;2023-11-21T03:49:42;97661.63;;;6.39;100.00
70445;BME280;57902;49.638;11.070;2023-11-21T03:52:08;97671.78;;;6.42;100.00
70445;BME280;57902;49.638;11.070;2023-11-21T03:54:35;97672.59;;;6.44;100.00
70445;BME280;57902;49.638;11.070;2023-11-21T03:57:03;97667.41;;;6.47;100.00
70445;BME280;57902;49.638;11.070;2023-11-21T03:59:29;97672.47;;;6.51;100.00
70445;BME280;57902;49.638;11.070;2023-11-21T04:01:56;97666.53;;;6.48;100.00
70445;BME280;57902;49.638;11.070;2023-11-21T04:04:23;97669.97;;;6.46;100.00
70445;BME280;57902;49.638;11.070;2023-11-21T04:06:50;97670.88;;;6.45;100.00
70445;BME280;57902;49.638;11.070;2023-11-21T04:09:18;97675.09;;;6.46;100.00
70445;BME280;57902;49.638;11.070;2023-11-21T04:11:45;97682.63;;;6.54;100.00
70445;BME280;57902;49.638;11.070;2023-11-21T04:14:13;97680.88;;;6.56;100.00
70445;BME280;57902;49.638;11.070;2023-11-21T04:16:40;97686.84;;;6.55;100.00
70445;BME280;57902;49.638;11.070;2023-11-21T04:19:07;97681.69;;;6.56;100.00
70445;BME280;57902;49.638;11.070;2023-11-21T04:21:36;97681.66;;;6.59;100.00
70445;BME280;57902;49.638;11.070;2023-11-21T04:24:03;97679.19;;;6.55;100.00
70445;BME280;57902;49.638;11.070;2023-11-21T04:26:29;97681.63;;;6.61;100.00
70445;BME280;57902;49.638;11.070;2023-11-21T04:28:56;97681.69;;;6.58;100.00
70445;BME280;57902;49.638;11.070;2023-11-21T04:31:23;97685.13;;;6.57;100.00
70445;BME280;57902;49.638;11.070;2023-11-21T04:33:50;97691.97;;;6.55;100.00
70445;BME280;57902;49.638;11.070;2023-11-21T04:36:16;97686.81;;;6.58;100.00
70445;BME280;57902;49.638;11.070;2023-11-21T04:38:43;97684.25;;;6.58;100.00
70445;BME280;57902;49.638;11.070;2023-11-21T04:41:10;97691.03;;;6.59;100.00
70445;BME280;57902;49.638;11.070;2023-11-21T04:43:36;97687.53;;;6.63;100.00
70445;BME280;57902;49.638;11.070;2023-11-21T04:46:03;97685.84;;;6.62;100.00
70445;BME280;57902;49.638;11.070;2023-11-21T04:48:29;97684.19;;;6.61;100.00
70445;BME280;57902;49.638;11.070;2023-11-21T04:50:57;97683.28;;;6.62;100.00
70445;BME280;57902;49.638;11.070;2023-11-21T04:53:23;97688.44;;;6.60;100.00
70445;BME280;57902;49.638;11.070;2023-11-21T04:55:50;97687.59;;;6.60;100.00
70445;BME280;57902;49.638;11.070;2023-11-21T04:58:17;97697.84;;;6.60;100.00
70445;BME280;57902;49.638;11.070;2023-11-21T05:00:44;97692.72;;;6.60;100.00
70445;BME280;57902;49.638;11.070;2023-11-21T05:03:10;97699.63;;;6.56;100.00
70445;BME280;57902;49.638;11.070;2023-11-21T05:05:37;97686.81;;;6.56;100.00
70445;BME280;57902;49.638;11.070;2023-11-21T05:08:03;97694.50;;;6.56;100.00
70445;BME280;57902;49.638;11.070;2023-11-21T05:10:31;97690.19;;;6.58;100.00
70445;BME280;57902;49.638;11.070;2023-11-21T05:12:57;97695.22;;;6.63;100.00
70445;BME280;57902;49.638;11.070;2023-11-21T05:15:24;97691.81;;;6.62;100.00
70445;BME280;57902;49.638;11.070;2023-11-21T05:17:51;97700.41;;;6.60;100.00
70445;BME280;57902;49.638;11.070;2023-11-21T05:20:19;97702.97;;;6.60;100.00
70445;BME280;57902;49.638;11.070;2023-11-21T05:22:50;97709.69;;;6.65;100.00
70445;BME280;57902;49.638;11.070;2023-11-21T05:25:17;97709.63;;;6.67;100.00
70445;BME280;57902;49.638;11.070;2023-11-21T05:27:48;97702.00;;;6.65;100.00
70445;BME280;57902;49.638;11.070;2023-11-21T05:30:14;97714.81;;;6.65;100.00
70445;BME280;57902;49.638;11.070;2023-11-21T05:32:41;97715.47;;;6.72;100.00
70445;BME280;57902;49.638;11.070;2023-11-21T05:35:12;97707.84;;;6.71;100.00
70445;BME280;57902;49.638;11.070;2023-11-21T05:37:44;97713.84;;;6.70;100.00
70445;BME280;57902;49.638;11.070;2023-11-21T05:40:12;97724.13;;;6.68;100.00
70445;BME280;57902;49.638;11.070;2023-11-21T05:42:39;97718.94;;;6.71;100.00
70445;BME280;57902;49.638;11.070;2023-11-21T05:45:07;97729.19;;;6.71;100.00
70445;BME280;57902;49.638;11.070;2023-11-21T05:47:40;97730.81;;;6.74;100.00
70445;BME280;57902;49.638;11.070;2023-11-21T05:50:12;97734.09;;;6.80;100.00
70445;BME280;57902;49.638;11.070;2023-11-21T05:52:43;97732.31;;;6.82;100.00
70445;BME280;57902;49.638;11.070;2023-11-21T05:55:10;97734.09;;;6.80;100.00
70445;BME280;57902;49.638;11.070;2023-11-21T05:57:38;97730.66;;;6.81;100.00
70445;BME280;57902;49.638;11.070;2023-11-21T06:00:06;97726.44;;;6.79;100.00
70445;BME280;57902;49.638;11.070;2023-11-21T06:02:38;97735.94;;;6.74;100.00
70445;BME280;57902;49.638;11.070;2023-11-21T06:05:06;97735.06;;;6.75;100.00
70445;BME280;57902;49.638;11.070;2023-11-21T06:07:33;97738.53;;;6.72;100.00
70445;BME280;57902;49.638;11.070;2023-11-21T06:10:03;97742.78;;;6.73;100.00
70445;BME280;57902;49.638;11.070;2023-11-21T06:12:33;97742.88;;;6.70;100.00
70445;BME280;57902;49.638;11.070;2023-11-21T06:15:05;97744.56;;;6.71;100.00
70445;BME280;57902;49.638;11.070;2023-11-21T06:17:35;97740.31;;;6.70;100.00
70445;BME280;57902;49.638;11.070;2023-11-21T06:20:07;97747.16;;;6.70;100.00
70445;BME280;57902;49.638;11.070;2023-11-21T06:22:42;97749.75;;;6.68;100.00
70445;BME280;57902;49.638;11.070;2023-11-21T06:25:10;97748.97;;;6.64;100.00
70445;BME280;57902;49.638;11.070;2023-11-21T06:27:39;97748.00;;;6.70;100.00
70445;BME280;57902;49.638;11.070;2023-11-21T06:30:06;97755.56;;;6.75;100.00
70445;BME280;57902;49.638;11.070;2023-11-21T06:32:35;97768.41;;;6.73;100.00
70445;BME280;57902;49.638;11.070;2023-11-21T06:35:03;97766.63;;;6.75;100.00
70445;BME280;57902;49.638;11.070;2023-11-21T06:37:31;97775.94;;;6.79;100.00
70445;BME280;57902;49.638;11.070;2023-11-21T06:39:59;97770.88;;;6.78;100.00
70445;BME280;57902;49.638;11.070;2023-11-21T06:42:26;97769.19;;;6.77;100.00
70445;BME280;57902;49.638;11.070;2023-11-21T06:44:53;97770.03;;;6.77;100.00
70445;BME280;57902;49.638;11.070;2023-11-21T06:47:20;97771.81;;;6.74;100.00
70445;BME280;57902;49.638;11.070;2023-11-21T06:49:47;97774.34;;;6.74;100.00
70445;BME280;57902;49.638;11.070;2023-11-21T06:52:16;97783.72;;;6.76;100.00
70445;BME280;57902;49.638;11.070;2023-11-21T06:54:44;97787.94;;;6.79;100.00
70445;BME280;57902;49.638;11.070;2023-11-21T06:57:11;97790.53;;;6.77;100.00
70445;BME280;57902;49.638;11.070;2023-11-21T06:59:38;97793.06;;;6.79;100.00
70445;BME280;57902;49.638;11.070;2023-11-21T07:02:05;97790.53;;;6.77;100.00
70445;BME280;57902;49.638;11.070;2023-11-21T07:04:36;97795.72;;;6.74;100.00
70445;BME280;57902;49.638;11.070;2023-11-21T07:07:03;97803.38;;;6.76;100.00
70445;BME280;57902;49.638;11.070;2023-11-21T07:09:30;97804.19;;;6.76;100.00
70445;BME280;57902;49.638;11.070;2023-11-21T07:11:57;97803.19;;;6.83;100.00
70445;BME280;57902;49.638;11.070;2023-11-21T07:14:24;97813.28;;;6.90;100.00
70445;BME280;57902;49.638;11.070;2023-11-21T07:16:50;97817.63;;;6.88;100.00
70445;BME280;57902;49.638;11.070;2023-11-21T07:19:19;97825.28;;;6.89;100.00
70445;BME280;57902;49.638;11.070;2023-11-21T07:21:46;97815.78;;;6.93;100.00
70445;BME280;57902;49.638;11.070;2023-11-21T07:24:13;97821.66;;;6.98;100.00
70445;BME280;57902;49.638;11.070;2023-11-21T07:26:40;97819.88;;;7.01;100.00
70445;BME280;57902;49.638;11.070;2023-11-21T07:29:07;97827.50;;;7.03;100.00
70445;BME280;57902;49.638;11.070;2023-11-21T07:31:33;97826.59;;;7.06;100.00
70445;BME280;57902;49.638;11.070;2023-11-21T07:34:03;97829.06;;;7.10;100.00
70445;BME280;57902;49.638;11.070;2023-11-21T07:36:29;97833.25;;;7.14;100.00
70445;BME280;57902;49.638;11.070;2023-11-21T07:38:56;97830.66;;;7.16;100.00
70445;BME280;57902;49.638;11.070;2023-11-21T07:41:22;97835.59;;;7.24;100.00
70445;BME280;57902;49.638;11.070;2023-11-21T07:43:56;97836.63;;;7.16;100.00
70445;BME280;57902;49.638;11.070;2023-11-21T07:46:24;97836.41;;;7.26;100.00
70445;BME280;57902;49.638;11.070;2023-11-21T07:48:53;97840.72;;;7.24;100.00
70445;BME280;57902;49.638;11.070;2023-11-21T07:51:19;97845.00;;;7.23;100.00
70445;BME280;57902;49.638;11.070;2023-11-21T07:53:46;97849.31;;;7.23;100.00
70445;BME280;57902;49.638;11.070;2023-11-21T07:56:13;97845.00;;;7.23;100.00
70445;BME280;57902;49.638;11.070;2023-11-21T07:58:39;97849.16;;;7.29;100.00
70445;BME280;57902;49.638;11.070;2023-11-21T08:01:06;97842.41;;;7.25;100.00
70445;BME280;57902;49.638;11.070;2023-11-21T08:03:34;97852.66;;;7.25;100.00
70445;BME280;57902;49.638;11.070;2023-11-21T08:06:01;97850.81;;;7.31;100.00
70445;BME280;57902;49.638;11.070;2023-11-21T08:08:29;97853.38;;;7.31;100.00
70445;BME280;57902;49.638;11.070;2023-11-21T08:10:56;97856.63;;;7.38;100.00
70445;BME280;57902;49.638;11.070;2023-11-21T08:13:27;97853.97;;;7.41;100.00
70445;BME280;57902;49.638;11.070;2023-11-21T08:15:55;97862.38;;;7.48;100.00
70445;BME280;57902;49.638;11.070;2023-11-21T08:18:22;97859.03;;;7.44;100.00
70445;BME280;57902;49.638;11.070;2023-11-21T08:20:49;97856.44;;;7.47;100.00
70445;BME280;57902;49.638;11.070;2023-11-21T08:23:16;97863.22;;;7.48;100.00
70445;BME280;57902;49.638;11.070;2023-11-21T08:25:45;97858.13;;;7.47;100.00
70445;BME280;57902;49.638;11.070;2023-11-21T08:28:13;97858.09;;;7.48;100.00
70445;BME280;57902;49.638;11.070;2023-11-21T08:30:41;97854.56;;;7.52;100.00
70445;BME280;57902;49.638;11.070;2023-11-21T08:33:08;97862.13;;;7.59;100.00
70445;BME280;57902;49.638;11.070;2023-11-21T08:35:40;97862.94;;;7.61;100.00
70445;BME280;57902;49.638;11.070;2023-11-21T08:38:06;97867.09;;;7.65;100.00
70445;BME280;57902;49.638;11.070;2023-11-21T08:40:34;97868.72;;;7.69;100.00
70445;BME280;57902;49.638;11.070;2023-11-21T08:43:01;97873.69;;;7.75;100.00
70445;BME280;57902;49.638;11.070;2023-11-21T08:45:31;97872.78;;;7.78;100.00
70445;BME280;57902;49.638;11.070;2023-11-21T08:48:01;97870.09;;;7.82;100.00
70445;BME280;57902;49.638;11.070;2023-11-21T08:50:28;97877.59;;;7.90;100.00
70445;BME280;57902;49.638;11.070;2023-11-21T08:52:55;97878.19;;;8.00;100.00
70445;BME280;57902;49.638;11.070;2023-11-21T08:55:22;97881.59;;;8.02;100.00
70445;BME280;57902;49.638;11.070;2023-11-21T08:57:48;97884.78;;;8.10;100.00
70445;BME280;57902;49.638;11.070;2023-11-21T09:00:16;97891.56;;;8.13;100.00
70445;BME280;57902;49.638;11.070;2023-11-21T09:02:44;97887.25;;;8.13;100.00
70445;BME280;57902;49.638;11.070;2023-11-21T09:05:11;97889.00;;;8.13;100.00
70445;BME280;57902;49.638;11.070;2023-11-21T09:07:39;97906.22;;;8.09;100.00
70445;BME280;57902;49.638;11.070;2023-11-21T09:10:08;97903.66;;;8.09;100.00
70445;BME280;57902;49.638;11.070;2023-11-21T09:12:36;97901.34;;;7.98;100.00
70445;BME280;57902;49.638;11.070;2023-11-21T09:15:07;97911.47;;;8.03;100.00
70445;BME280;57902;49.638;11.070;2023-11-21T09:17:34;97911.44;;;8.06;100.00
70445;BME280;57902;49.638;11.070;2023-11-21T09:20:01;97902.84;;;8.07;100.00
70445;BME280;57902;49.638;11.070;2023-11-21T09:22:30;97908.53;;;8.18;100.00
70445;BME280;57902;49.638;11.070;2023-11-21T09:24:58;97914.34;;;8.25;100.00
70445;BME280;57902;49.638;11.070;2023-11-21T09:27:24;97913.50;;;8.24;100.00
70445;BME280;57902;49.638;11.070;2023-11-21T09:29:52;97920.41;;;8.22;100.00
70445;BME280;57902;49.638;11.070;2023-11-21T09:32:20;97923.69;;;8.28;100.00
70445;BME280;57902;49.638;11.070;2023-11-21T09:34:48;97926.97;;;8.34;100.00
70445;BME280;57902;49.638;11.070;2023-11-21T09:37:16;97927.63;;;8.41;100.00
70445;BME280;57902;49.638;11.070;2023-11-21T09:39:43;97921.78;;;8.36;100.00
70445;BME280;57902;49.638;11.070;2023-11-21T09:42:15;97923.47;;;8.37;100.00
70445;BME280;57902;49.638;11.070;2023-11-21T09:45:03;97925.06;;;8.41;100.00
70445;BME280;57902;49.638;11.070;2023-11-21T09:47:33;97921.56;;;8.45;100.00
70445;BME280;57902;49.638;11.070;2023-11-21T09:50:02;97925.66;;;8.52;100.00
70445;BME280;57902;49.638;11.070;2023-11-21T09:52:31;97923.88;;;8.54;100.00
70445;BME280;57902;49.638;11.070;2023-11-21T09:55:00;97933.22;;;8.57;100.00
70445;BME280;57902;49.638;11.070;2023-11-21T09:57:27;97924.34;;;8.69;100.00
70445;BME280;57902;49.638;11.070;2023-11-21T09:59:54;97924.22;;;8.73;100.00
70445;BME280;57902;49.638;11.070;2023-11-21T10:02:27;97915.50;;;8.79;100.00
70445;BME280;57902;49.638;11.070;2023-11-21T10:04:56;97918.69;;;8.87;100.00
70445;BME280;57902;49.638;11.070;2023-11-21T10:07:23;97927.97;;;8.93;100.00
70445;BME280;57902;49.638;11.070;2023-11-21T10:09:51;97928.16;;;8.87;100.00
70445;BME280;57902;49.638;11.070;2023-11-21T10:12:17;97934.28;;;8.81;100.00
70445;BME280;57902;49.638;11.070;2023-11-21T10:14:48;97923.75;;;8.90;100.00
70445;BME280;57902;49.638;11.070;2023-11-21T10:17:17;97925.94;;;9.03;100.00
70445;BME280;57902;49.638;11.070;2023-11-21T10:19:47;97928.81;;;9.22;100.00
70445;BME280;57902;49.638;11.070;2023-11-21T10:22:16;97937.69;;;9.11;100.00
70445;BME280;57902;49.638;11.070;2023-11-21T10:24:43;97930.56;;;8.91;100.00
70445;BME280;57902;49.638;11.070;2023-11-21T10:27:19;97929.81;;;8.88;100.00
70445;BME280;57902;49.638;11.070;2023-11-21T10:29:45;97933.50;;;9.09;100.00
70445;BME280;57902;49.638;11.070;2023-11-21T10:32:12;97930.97;;;9.07;100.00
70445;BME280;57902;49.638;11.070;2023-11-21T10:34:38;97936.47;;;8.95;100.00
70445;BME280;57902;49.638;11.070;2023-11-21T10:37:11;97931.91;;;9.05;100.00
70445;BME280;57902;49.638;11.070;2023-11-21T10:39:38;97932.47;;;9.15;100.00
70445;BME280;57902;49.638;11.070;2023-11-21T10:42:08;97933.03;;;9.24;100.00
70445;BME280;57902;49.638;11.070;2023-11-21T10:44:36;97932.06;;;9.28;100.00
70445;BME280;57902;49.638;11.070;2023-11-21T10:47:04;97938.94;;;9.28;100.00
70445;BME280;57902;49.638;11.070;2023-11-21T10:49:31;97936.44;;;9.26;100.00
70445;BME280;57902;49.638;11.070;2023-11-21T10:51:59;97936.72;;;9.45;100.00
70445;BME280;57902;49.638;11.070;2023-11-21T10:54:26;97936.66;;;9.47;100.00
70445;BME280;57902;49.638;11.070;2023-11-21T10:56:57;97939.41;;;9.41;100.00
70445;BME280;57902;49.638;11.070;2023-11-21T10:59:23;97930.66;;;9.46;100.00
70445;BME280;57902;49.638;11.070;2023-11-21T11:01:52;97936.63;;;9.49;100.00
70445;BME280;57902;49.638;11.070;2023-11-21T11:04:22;97938.06;;;9.57;100.00
70445;BME280;57902;49.638;11.070;2023-11-21T11:07:02;97941.88;;;9.44;100.00
70445;BME280;57902;49.638;11.070;2023-11-21T11:09:32;97938.53;;;9.42;100.00
70445;BME280;57902;49.638;11.070;2023-11-21T11:12:02;97946.44;;;9.36;100.00
70445;BME280;57902;49.638;11.070;2023-11-21T11:14:31;97941.53;;;9.28;100.00
70445;BME280;57902;49.638;11.070;2023-11-21T11:16:59;97946.75;;;9.25;100.00
70445;BME280;57902;49.638;11.070;2023-11-21T11:19:27;97941.72;;;9.20;100.00
70445;BME280;57902;49.638;11.070;2023-11-21T11:28:11;97938.28;;;9.21;100.00
70445;BME280;57902;49.638;11.070;2023-11-21T11:33:39;97931.84;;;9.06;100.00
70445;BME280;57902;49.638;11.070;2023-11-21T11:36:17;97937.66;;;9.13;100.00
70445;BME280;57902;49.638;11.070;2023-11-21T11:38:46;97934.28;;;9.11;100.00
70445;BME280;57902;49.638;11.070;2023-11-21T11:41:12;97939.53;;;9.08;100.00
70445;BME280;57902;49.638;11.070;2023-11-21T11:43:40;97938.75;;;9.06;100.00
70445;BME280;57902;49.638;11.070;2023-11-21T11:46:11;97942.19;;;9.05;100.00
70445;BME280;57902;49.638;11.070;2023-11-21T11:48:41;97937.06;;;9.05;100.00
70445;BME280;57902;49.638;11.070;2023-11-21T11:51:13;97943.13;;;9.31;100.00
70445;BME280;57902;49.638;11.070;2023-11-21T11:53:48;97947.88;;;9.15;100.00
70445;BME280;57902;49.638;11.070;2023-11-21T11:56:29;97953.75;;;9.20;100.00
70445;BME280;57902;49.638;11.070;2023-11-21T11:59:04;97954.28;;;9.31;100.00
70445;BME280;57902;49.638;11.070;2023-11-21T12:01:32;97953.81;;;9.46;100.00
70445;BME280;57902;49.638;11.070;2023-11-21T12:06:43;97955.59;;;9.44;100.00
70445;BME280;57902;49.638;11.070;2023-11-21T12:09:20;97959.78;;;9.49;100.00
70445;BME280;57902;49.638;11.070;2023-11-21T12:11:51;97963.47;;;9.40;100.00
70445;BME280;57902;49.638;11.070;2023-11-21T12:14:17;97960.88;;;9.40;100.00
70445;BME280;57902;49.638;11.070;2023-11-21T12:16:44;97967.75;;;9.39;100.00
70445;BME280;57902;49.638;11.070;2023-11-21T12:19:11;97967.53;;;9.47;100.00
70445;BME280;57902;49.638;11.070;2023-11-21T12:21:39;97969.09;;;9.51;100.00
70445;BME280;57902;49.638;11.070;2023-11-21T12:24:07;97966.88;;;9.40;100.00
70445;BME280;57902;49.638;11.070;2023-11-21T12:26:40;97971.78;;;9.48;100.00
70445;BME280;57902;49.638;11.070;2023-11-21T12:29:07;97971.22;;;9.38;100.00
70445;BME280;57902;49.638;11.070;2023-11-21T12:31:37;97967.94;;;9.61;100.00
70445;BME280;57902;49.638;11.070;2023-11-21T12:34:04;97974.34;;;9.48;100.00
70445;BME280;57902;49.638;11.070;2023-11-21T12:36:31;97964.47;;;9.34;100.00
70445;BME280;57902;49.638;11.070;2023-11-21T12:38:58;97968.22;;;9.52;100.00
70445;BME280;57902;49.638;11.070;2023-11-21T12:41:24;97958.41;;;9.65;100.00
70445;BME280;57902;49.638;11.070;2023-11-21T12:43:51;97966.91;;;9.67;100.00
70445;BME280;57902;49.638;11.070;2023-11-21T12:46:19;97971.88;;;9.45;100.00
70445;BME280;57902;49.638;11.070;2023-11-21T12:48:47;97969.06;;;9.53;100.00
70445;BME280;57902;49.638;11.070;2023-11-21T12:51:13;97973.78;;;9.67;100.00
70445;BME280;57902;49.638;11.070;2023-11-21T12:53:44;97975.84;;;9.55;100.00
70445;BME280;57902;49.638;11.070;2023-11-21T12:56:11;97977.69;;;9.52;100.00
70445;BME280;57902;49.638;11.070;2023-11-21T12:58:39;97979.50;;;9.48;100.00
70445;BME280;57902;49.638;11.070;2023-11-21T13:01:08;97979.72;;;9.69;100.00
70445;BME280;57902;49.638;11.070;2023-11-21T13:03:38;97983.47;;;9.58;100.00
70445;BME280;57902;49.638;11.070;2023-11-21T13:06:07;97985.56;;;9.47;100.00